sensor_id;sensor_type;location;lat;lon;timestamp;P1;durP1;ratioP1;P2;durP2;ratioP2
57718;SDS011;43561;50.090;18.522;2023-09-08T00:01:46;38.42;;;26.00;;
57718;SDS011;43561;50.090;18.522;2023-09-08T00:11:49;36.38;;;25.08;;
57718;SDS011;43561;50.090;18.522;2023-09-08T00:21:51;35.55;;;25.42;;
57718;SDS011;43561;50.090;18.522;2023-09-08T00:31:53;31.00;;;24.10;;
57718;SDS011;43561;50.090;18.522;2023-09-08T00:41:55;28.52;;;23.85;;
57718;SDS011;43561;50.090;18.522;2023-09-08T00:51:56;30.33;;;24.55;;
57718;SDS011;43561;50.090;18.522;2023-09-08T01:01:58;33.65;;;23.60;;
57718;SDS011;43561;50.090;18.522;2023-09-08T01:12:04;33.17;;;23.98;;
57718;SDS011;43561;50.090;18.522;2023-09-08T01:22:15;33.10;;;25.25;;
57718;SDS011;43561;50.090;18.522;2023-09-08T01:32:25;29.40;;;25.00;;
57718;SDS011;43561;50.090;18.522;2023-09-08T01:42:27;31.25;;;22.48;;
57718;SDS011;43561;50.090;18.522;2023-09-08T01:52:29;34.28;;;22.33;;
57718;SDS011;43561;50.090;18.522;2023-09-08T02:02:31;40.00;;;26.40;;
57718;SDS011;43561;50.090;18.522;2023-09-08T02:12:34;33.80;;;24.30;;
57718;SDS011;43561;50.090;18.522;2023-09-08T02:22:36;35.70;;;26.48;;
57718;SDS011;43561;50.090;18.522;2023-09-08T02:32:38;43.67;;;26.10;;
57718;SDS011;43561;50.090;18.522;2023-09-08T02:42:41;35.92;;;25.95;;
57718;SDS011;43561;50.090;18.522;2023-09-08T02:52:43;36.53;;;26.13;;
57718;SDS011;43561;50.090;18.522;2023-09-08T03:02:45;31.33;;;25.70;;
57718;SDS011;43561;50.090;18.522;2023-09-08T03:12:49;47.80;;;33.13;;
57718;SDS011;43561;50.090;18.522;2023-09-08T03:22:51;39.75;;;28.08;;
57718;SDS011;43561;50.090;18.522;2023-09-08T03:32:53;52.00;;;34.60;;
57718;SDS011;43561;50.090;18.522;2023-09-08T03:42:56;51.22;;;34.58;;
57718;SDS011;43561;50.090;18.522;2023-09-08T03:52:58;57.33;;;36.10;;
57718;SDS011;43561;50.090;18.522;2023-09-08T04:03:01;47.33;;;35.58;;
57718;SDS011;43561;50.090;18.522;2023-09-08T04:13:04;55.97;;;38.58;;
57718;SDS011;43561;50.090;18.522;2023-09-08T04:23:07;52.35;;;34.80;;
57718;SDS011;43561;50.090;18.522;2023-09-08T04:33:15;56.03;;;36.28;;
57718;SDS011;43561;50.090;18.522;2023-09-08T04:43:18;67.57;;;38.85;;
57718;SDS011;43561;50.090;18.522;2023-09-08T04:53:37;60.63;;;39.30;;
57718;SDS011;43561;50.090;18.522;2023-09-08T05:03:39;45.65;;;30.27;;
57718;SDS011;43561;50.090;18.522;2023-09-08T05:13:42;49.10;;;34.33;;
57718;SDS011;43561;50.090;18.522;2023-09-08T05:23:44;48.30;;;32.67;;
57718;SDS011;43561;50.090;18.522;2023-09-08T05:33:46;42.45;;;32.85;;
57718;SDS011;43561;50.090;18.522;2023-09-08T05:43:49;48.72;;;31.75;;
57718;SDS011;43561;50.090;18.522;2023-09-08T05:53:51;53.92;;;30.33;;
57718;SDS011;43561;50.090;18.522;2023-09-08T06:03:53;41.75;;;30.85;;
57718;SDS011;43561;50.090;18.522;2023-09-08T06:13:58;53.22;;;31.23;;
57718;SDS011;43561;50.090;18.522;2023-09-08T06:24:03;40.88;;;29.73;;
57718;SDS011;43561;50.090;18.522;2023-09-08T06:34:05;48.33;;;31.63;;
57718;SDS011;43561;50.090;18.522;2023-09-08T06:44:08;53.13;;;37.55;;
57718;SDS011;43561;50.090;18.522;2023-09-08T06:54:10;44.88;;;31.77;;
57718;SDS011;43561;50.090;18.522;2023-09-08T07:04:16;33.55;;;26.85;;
57718;SDS011;43561;50.090;18.522;2023-09-08T07:14:18;41.15;;;27.38;;
57718;SDS011;43561;50.090;18.522;2023-09-08T07:24:21;31.00;;;23.88;;
57718;SDS011;43561;50.090;18.522;2023-09-08T07:34:23;30.33;;;21.80;;
57718;SDS011;43561;50.090;18.522;2023-09-08T07:44:25;30.70;;;22.45;;
57718;SDS011;43561;50.090;18.522;2023-09-08T07:54:28;36.20;;;21.65;;
57718;SDS011;43561;50.090;18.522;2023-09-08T08:04:30;26.55;;;20.90;;
57718;SDS011;43561;50.090;18.522;2023-09-08T08:14:32;30.20;;;18.90;;
57718;SDS011;43561;50.090;18.522;2023-09-08T08:24:34;28.08;;;17.63;;
57718;SDS011;43561;50.090;18.522;2023-09-08T08:34:36;24.58;;;17.02;;
57718;SDS011;43561;50.090;18.522;2023-09-08T08:44:38;22.40;;;15.60;;
57718;SDS011;43561;50.090;18.522;2023-09-08T08:54:41;26.98;;;17.30;;
57718;SDS011;43561;50.090;18.522;2023-09-08T09:04:43;21.77;;;15.98;;
57718;SDS011;43561;50.090;18.522;2023-09-08T09:14:46;28.85;;;15.02;;
57718;SDS011;43561;50.090;18.522;2023-09-08T09:24:48;20.17;;;13.60;;
57718;SDS011;43561;50.090;18.522;2023-09-08T09:34:51;21.85;;;15.23;;
57718;SDS011;43561;50.090;18.522;2023-09-08T09:44:55;20.58;;;14.15;;
57718;SDS011;43561;50.090;18.522;2023-09-08T09:54:57;22.20;;;14.00;;
57718;SDS011;43561;50.090;18.522;2023-09-08T10:05:09;20.73;;;15.00;;
57718;SDS011;43561;50.090;18.522;2023-09-08T10:15:30;20.65;;;13.15;;
57718;SDS011;43561;50.090;18.522;2023-09-08T10:25:34;19.33;;;13.27;;
57718;SDS011;43561;50.090;18.522;2023-09-08T10:35:39;21.40;;;16.27;;
57718;SDS011;43561;50.090;18.522;2023-09-08T10:45:43;19.25;;;14.68;;
57718;SDS011;43561;50.090;18.522;2023-09-08T10:55:50;21.13;;;15.10;;
57718;SDS011;43561;50.090;18.522;2023-09-08T11:05:57;18.27;;;13.25;;
57718;SDS011;43561;50.090;18.522;2023-09-08T11:15:59;25.20;;;14.57;;
57718;SDS011;43561;50.090;18.522;2023-09-08T11:26:02;17.08;;;13.45;;
57718;SDS011;43561;50.090;18.522;2023-09-08T11:36:10;19.77;;;13.43;;
57718;SDS011;43561;50.090;18.522;2023-09-08T11:46:14;22.13;;;14.05;;
57718;SDS011;43561;50.090;18.522;2023-09-08T11:56:18;15.07;;;13.13;;
57718;SDS011;43561;50.090;18.522;2023-09-08T12:06:27;23.48;;;18.63;;
57718;SDS011;43561;50.090;18.522;2023-09-08T12:16:29;18.63;;;13.30;;
57718;SDS011;43561;50.090;18.522;2023-09-08T12:26:31;19.15;;;14.07;;
57718;SDS011;43561;50.090;18.522;2023-09-08T12:36:33;14.27;;;12.73;;
57718;SDS011;43561;50.090;18.522;2023-09-08T12:46:37;16.55;;;12.88;;
57718;SDS011;43561;50.090;18.522;2023-09-08T12:56:39;24.73;;;13.85;;
57718;SDS011;43561;50.090;18.522;2023-09-08T13:06:41;23.33;;;14.38;;
57718;SDS011;43561;50.090;18.522;2023-09-08T13:16:43;20.92;;;11.77;;
57718;SDS011;43561;50.090;18.522;2023-09-08T13:26:45;13.00;;;9.98;;
57718;SDS011;43561;50.090;18.522;2023-09-08T13:36:47;16.70;;;11.93;;
57718;SDS011;43561;50.090;18.522;2023-09-08T13:46:50;13.73;;;11.45;;
57718;SDS011;43561;50.090;18.522;2023-09-08T13:57:02;19.35;;;12.65;;
57718;SDS011;43561;50.090;18.522;2023-09-08T14:07:09;18.52;;;13.63;;
57718;SDS011;43561;50.090;18.522;2023-09-08T14:17:14;13.00;;;11.60;;
57718;SDS011;43561;50.090;18.522;2023-09-08T14:27:16;12.68;;;11.35;;
57718;SDS011;43561;50.090;18.522;2023-09-08T14:37:17;13.00;;;10.57;;
57718;SDS011;43561;50.090;18.522;2023-09-08T14:47:20;13.15;;;10.85;;
57718;SDS011;43561;50.090;18.522;2023-09-08T14:57:22;18.45;;;10.82;;
57718;SDS011;43561;50.090;18.522;2023-09-08T15:07:24;13.52;;;10.27;;
57718;SDS011;43561;50.090;18.522;2023-09-08T15:17:26;12.57;;;10.77;;
57718;SDS011;43561;50.090;18.522;2023-09-08T15:27:28;11.68;;;10.50;;
57718;SDS011;43561;50.090;18.522;2023-09-08T15:37:30;16.17;;;11.57;;
57718;SDS011;43561;50.090;18.522;2023-09-08T15:47:33;15.00;;;10.88;;
57718;SDS011;43561;50.090;18.522;2023-09-08T15:57:35;13.57;;;9.50;;
57718;SDS011;43561;50.090;18.522;2023-09-08T16:07:36;11.73;;;9.43;;
57718;SDS011;43561;50.090;18.522;2023-09-08T16:17:38;17.83;;;9.07;;
57718;SDS011;43561;50.090;18.522;2023-09-08T16:27:40;16.40;;;10.13;;
57718;SDS011;43561;50.090;18.522;2023-09-08T16:37:43;13.98;;;10.25;;
57718;SDS011;43561;50.090;18.522;2023-09-08T16:47:45;18.27;;;10.38;;
57718;SDS011;43561;50.090;18.522;2023-09-08T16:57:47;13.98;;;11.57;;
57718;SDS011;43561;50.090;18.522;2023-09-08T17:07:49;16.67;;;11.82;;
57718;SDS011;43561;50.090;18.522;2023-09-08T17:17:50;14.55;;;12.63;;
57718;SDS011;43561;50.090;18.522;2023-09-08T17:27:52;17.50;;;12.55;;
57718;SDS011;43561;50.090;18.522;2023-09-08T17:37:56;15.27;;;13.70;;
57718;SDS011;43561;50.090;18.522;2023-09-08T17:47:58;26.92;;;17.83;;
57718;SDS011;43561;50.090;18.522;2023-09-08T17:58:00;35.78;;;19.63;;
57718;SDS011;43561;50.090;18.522;2023-09-08T18:08:02;40.35;;;24.02;;
57718;SDS011;43561;50.090;18.522;2023-09-08T18:18:05;29.10;;;17.85;;
57718;SDS011;43561;50.090;18.522;2023-09-08T18:28:07;30.58;;;19.17;;
57718;SDS011;43561;50.090;18.522;2023-09-08T18:38:09;30.48;;;19.58;;
57718;SDS011;43561;50.090;18.522;2023-09-08T18:48:11;60.63;;;35.72;;
57718;SDS011;43561;50.090;18.522;2023-09-08T18:58:13;43.63;;;27.23;;
57718;SDS011;43561;50.090;18.522;2023-09-08T19:08:15;35.42;;;22.55;;
57718;SDS011;43561;50.090;18.522;2023-09-08T19:18:17;51.78;;;34.92;;
57718;SDS011;43561;50.090;18.522;2023-09-08T19:28:19;25.02;;;20.67;;
57718;SDS011;43561;50.090;18.522;2023-09-08T19:38:21;28.17;;;21.08;;
57718;SDS011;43561;50.090;18.522;2023-09-08T19:48:23;31.88;;;24.85;;
57718;SDS011;43561;50.090;18.522;2023-09-08T19:58:25;23.08;;;20.42;;
57718;SDS011;43561;50.090;18.522;2023-09-08T20:08:28;29.83;;;20.48;;
57718;SDS011;43561;50.090;18.522;2023-09-08T20:18:30;25.05;;;20.50;;
57718;SDS011;43561;50.090;18.522;2023-09-08T20:28:32;32.50;;;21.65;;
57718;SDS011;43561;50.090;18.522;2023-09-08T20:38:34;29.70;;;22.58;;
57718;SDS011;43561;50.090;18.522;2023-09-08T20:48:37;37.17;;;21.95;;
57718;SDS011;43561;50.090;18.522;2023-09-08T20:58:40;54.92;;;34.38;;
57718;SDS011;43561;50.090;18.522;2023-09-08T21:08:43;40.38;;;29.88;;
57718;SDS011;43561;50.090;18.522;2023-09-08T21:18:48;35.83;;;29.52;;
57718;SDS011;43561;50.090;18.522;2023-09-08T21:28:51;37.35;;;26.00;;
57718;SDS011;43561;50.090;18.522;2023-09-08T21:38:53;30.30;;;26.17;;
57718;SDS011;43561;50.090;18.522;2023-09-08T21:48:57;37.85;;;25.88;;
57718;SDS011;43561;50.090;18.522;2023-09-08T21:58:59;36.90;;;27.00;;
57718;SDS011;43561;50.090;18.522;2023-09-08T22:09:01;56.20;;;30.85;;
57718;SDS011;43561;50.090;18.522;2023-09-08T22:19:06;41.28;;;27.45;;
57718;SDS011;43561;50.090;18.522;2023-09-08T22:29:08;39.83;;;28.52;;
57718;SDS011;43561;50.090;18.522;2023-09-08T22:39:10;40.72;;;27.88;;
57718;SDS011;43561;50.090;18.522;2023-09-08T22:49:13;35.05;;;27.85;;
57718;SDS011;43561;50.090;18.522;2023-09-08T22:59:15;38.75;;;30.35;;
57718;SDS011;43561;50.090;18.522;2023-09-08T23:09:17;47.80;;;33.83;;
57718;SDS011;43561;50.090;18.522;2023-09-08T23:19:19;54.00;;;33.65;;
57718;SDS011;43561;50.090;18.522;2023-09-08T23:29:21;42.40;;;31.45;;
57718;SDS011;43561;50.090;18.522;2023-09-08T23:39:23;46.25;;;28.38;;
57718;SDS011;43561;50.090;18.522;2023-09-08T23:49:24;41.05;;;29.23;;
57718;SDS011;43561;50.090;18.522;2023-09-08T23:59:27;36.53;;;29.15;;
